createdAt,value
2018-10-21T00:04:24.153Z,61.20
2018-10-21T00:14:27.396Z,62.70
2018-10-21T00:24:30.636Z,62.60
2018-10-21T00:34:33.912Z,62.60
2018-10-21T00:44:37.124Z,63.00
2018-10-21T00:54:40.469Z,63.20
2018-10-21T01:04:43.734Z,63.00
2018-10-21T01:14:46.971Z,63.00
2018-10-21T01:24:50.197Z,63.40
2018-10-21T01:34:53.595Z,64.10
2018-10-21T01:44:56.887Z,63.70
2018-10-21T01:55:00.089Z,63.90
2018-10-21T02:05:03.337Z,63.50
2018-10-21T02:15:07.385Z,64.00
2018-10-21T02:25:11.476Z,64.40
2018-10-21T02:35:15.405Z,64.40
2018-10-21T02:45:18.707Z,65.00
2018-10-21T02:55:21.909Z,64.00
2018-10-21T03:05:25.186Z,64.60
2018-10-21T03:15:28.401Z,64.90
2018-10-21T03:25:31.890Z,64.50
2018-10-21T03:35:35.169Z,64.70
2018-10-21T03:45:38.393Z,65.00
2018-10-21T03:55:42.671Z,65.60
2018-10-21T04:05:45.908Z,66.00
2018-10-21T04:15:49.116Z,65.80
2018-10-21T04:25:52.361Z,66.10
2018-10-21T04:35:55.611Z,66.70
2018-10-21T04:45:59.328Z,67.30
2018-10-21T04:56:02.548Z,67.60
2018-10-21T05:06:06.195Z,66.80
2018-10-21T05:16:09.471Z,66.90
2018-10-21T05:26:12.656Z,67.00
2018-10-21T05:36:15.889Z,66.80
2018-10-21T05:46:37.098Z,66.30
2018-10-21T05:56:44.605Z,67.40
2018-10-21T06:06:47.999Z,68.20
2018-10-21T06:16:52.532Z,68.60
2018-10-21T06:26:55.824Z,68.50
2018-10-21T06:36:59.353Z,67.80
2018-10-21T06:47:02.730Z,67.70
2018-10-21T06:57:06.221Z,67.20
2018-10-21T07:07:09.674Z,66.90
2018-10-21T07:17:13.092Z,67.10
2018-10-21T07:27:16.417Z,66.70
2018-10-21T07:37:19.937Z,66.60
2018-10-21T07:47:23.414Z,66.60
2018-10-21T07:57:27.022Z,67.20
2018-10-21T08:07:41.794Z,66.50
2018-10-21T08:17:45.149Z,66.50
2018-10-21T08:27:48.462Z,66.10
2018-10-21T08:37:52.204Z,63.80
2018-10-21T08:47:55.732Z,63.10
2018-10-21T08:57:59.114Z,62.00
2018-10-21T09:08:02.519Z,61.70
2018-10-21T09:18:05.855Z,61.10
2018-10-21T09:28:09.532Z,60.20
2018-10-21T09:38:12.837Z,59.70
2018-10-21T09:48:16.099Z,59.30
2018-10-21T09:58:19.527Z,59.10
2018-10-21T10:08:22.877Z,57.90
2018-10-21T10:18:26.445Z,57.00
2018-10-21T10:28:29.856Z,56.40
2018-10-21T10:38:33.094Z,56.10
2018-10-21T10:48:36.480Z,55.60
2018-10-21T10:58:39.766Z,55.20
2018-10-21T11:08:43.083Z,54.80
2018-10-21T11:18:46.533Z,54.40
2018-10-21T11:28:49.932Z,53.80
2018-10-21T11:38:53.332Z,53.30
2018-10-21T11:48:56.578Z,52.60
2018-10-21T11:58:59.817Z,52.20
2018-10-21T12:09:03.189Z,51.60
2018-10-21T12:19:06.489Z,51.20
2018-10-21T12:29:09.826Z,50.30
2018-10-21T12:39:13.055Z,49.40
2018-10-21T12:49:16.334Z,48.60
2018-10-21T12:59:19.665Z,48.00
2018-10-21T13:09:22.987Z,47.60
2018-10-21T13:19:26.323Z,47.40
2018-10-21T13:29:29.584Z,47.00
2018-10-21T13:39:33.127Z,46.70
2018-10-21T13:49:36.473Z,46.90
2018-10-21T13:59:39.750Z,46.90
2018-10-21T14:09:43.000Z,46.40
2018-10-21T14:19:46.232Z,45.70
2018-10-21T14:29:49.477Z,45.30
2018-10-21T14:39:52.717Z,45.10
2018-10-21T14:49:56.021Z,45.00
2018-10-21T14:59:59.362Z,45.20
2018-10-21T15:10:02.570Z,44.50
2018-10-21T15:20:06.519Z,44.70
2018-10-21T15:30:10.615Z,44.20
2018-10-21T15:40:13.998Z,44.50
2018-10-21T15:50:17.269Z,44.60
2018-10-21T16:00:20.761Z,45.30
2018-10-21T16:10:24.078Z,45.30
2018-10-21T16:20:27.469Z,46.10
2018-10-21T16:30:30.831Z,46.90
2018-10-21T16:40:34.143Z,47.70
2018-10-21T16:50:37.896Z,48.40
2018-10-21T17:00:41.128Z,48.90
2018-10-21T17:10:44.429Z,49.70
2018-10-21T17:20:47.908Z,50.10
2018-10-21T17:30:51.125Z,50.70
2018-10-21T17:40:54.696Z,51.10
2018-10-21T17:50:57.996Z,51.70
2018-10-21T18:01:01.736Z,52.40
2018-10-21T18:11:05.301Z,52.80
2018-10-21T18:21:08.552Z,53.30
2018-10-21T18:31:11.874Z,53.90
2018-10-21T18:41:15.818Z,54.40
2018-10-21T18:51:18.845Z,54.60
2018-10-21T19:01:22.092Z,55.20
2018-10-21T19:11:25.358Z,55.60
2018-10-21T19:21:28.635Z,56.10
2018-10-21T19:31:31.860Z,56.60
2018-10-21T19:41:35.093Z,56.80
2018-10-21T19:51:38.333Z,57.10
2018-10-21T20:01:41.622Z,57.40
2018-10-21T20:11:44.857Z,57.50
2018-10-21T20:21:48.167Z,57.40
2018-10-21T20:31:51.400Z,57.60
2018-10-21T20:41:54.715Z,57.90
2018-10-21T20:51:57.920Z,58.10
2018-10-21T21:02:01.141Z,58.20
2018-10-21T21:12:04.862Z,59.20
2018-10-21T21:22:08.139Z,59.40
2018-10-21T21:32:11.349Z,59.60
2018-10-21T21:42:14.645Z,59.90
2018-10-21T21:52:17.848Z,59.90
2018-10-21T22:02:21.062Z,60.30
2018-10-21T22:12:24.289Z,60.30
2018-10-21T22:22:27.541Z,61.00
2018-10-21T22:32:30.765Z,61.30
2018-10-21T22:42:34.025Z,61.00
2018-10-21T22:52:37.261Z,61.40
2018-10-21T23:02:40.513Z,61.30
2018-10-21T23:12:43.947Z,61.50
2018-10-21T23:22:47.222Z,62.30
2018-10-21T23:32:51.408Z,62.00
2018-10-21T23:42:54.648Z,61.70
2018-10-21T23:52:57.902Z,61.80
